sensor_id;sensor_type;location;lat;lon;timestamp;P1;durP1;ratioP1;P2;durP2;ratioP2
41530;SDS011;58990;46.284;13.126;2022-07-21T00:00:00;20.08;;;14.10;;
41530;SDS011;58990;46.284;13.126;2022-07-21T00:02:30;24.45;;;13.73;;
41530;SDS011;58990;46.284;13.126;2022-07-21T00:04:55;25.27;;;15.93;;
41530;SDS011;58990;46.284;13.126;2022-07-21T00:07:21;24.55;;;16.08;;
41530;SDS011;58990;46.284;13.126;2022-07-21T00:09:46;28.60;;;17.52;;
41530;SDS011;58990;46.284;13.126;2022-07-21T00:12:12;26.02;;;15.93;;
41530;SDS011;58990;46.284;13.126;2022-07-21T00:14:38;21.08;;;16.25;;
41530;SDS011;58990;46.284;13.126;2022-07-21T00:17:03;24.38;;;16.17;;
41530;SDS011;58990;46.284;13.126;2022-07-21T00:19:29;21.80;;;14.43;;
41530;SDS011;58990;46.284;13.126;2022-07-21T00:21:54;19.63;;;13.93;;
41530;SDS011;58990;46.284;13.126;2022-07-21T00:24:20;22.02;;;14.18;;
41530;SDS011;58990;46.284;13.126;2022-07-21T00:26:46;22.10;;;13.82;;
41530;SDS011;58990;46.284;13.126;2022-07-21T00:29:11;21.52;;;12.85;;
41530;SDS011;58990;46.284;13.126;2022-07-21T00:31:37;20.02;;;11.90;;
41530;SDS011;58990;46.284;13.126;2022-07-21T00:34:02;18.70;;;12.23;;
41530;SDS011;58990;46.284;13.126;2022-07-21T00:36:28;18.27;;;12.82;;
41530;SDS011;58990;46.284;13.126;2022-07-21T00:38:53;24.48;;;16.73;;
41530;SDS011;58990;46.284;13.126;2022-07-21T00:41:19;25.17;;;17.05;;
41530;SDS011;58990;46.284;13.126;2022-07-21T00:43:44;28.85;;;18.42;;
41530;SDS011;58990;46.284;13.126;2022-07-21T00:46:10;25.83;;;16.95;;
41530;SDS011;58990;46.284;13.126;2022-07-21T00:48:35;23.90;;;16.48;;
41530;SDS011;58990;46.284;13.126;2022-07-21T00:51:01;23.75;;;15.85;;
41530;SDS011;58990;46.284;13.126;2022-07-21T00:53:26;20.67;;;15.15;;
41530;SDS011;58990;46.284;13.126;2022-07-21T00:55:52;21.13;;;14.70;;
41530;SDS011;58990;46.284;13.126;2022-07-21T00:58:17;22.25;;;15.38;;
41530;SDS011;58990;46.284;13.126;2022-07-21T01:00:43;24.80;;;16.17;;
41530;SDS011;58990;46.284;13.126;2022-07-21T01:03:09;22.67;;;14.70;;
41530;SDS011;58990;46.284;13.126;2022-07-21T01:05:35;23.48;;;15.38;;
41530;SDS011;58990;46.284;13.126;2022-07-21T01:08:00;21.35;;;15.43;;
41530;SDS011;58990;46.284;13.126;2022-07-21T01:10:30;28.65;;;20.85;;
41530;SDS011;58990;46.284;13.126;2022-07-21T01:12:57;37.70;;;26.08;;
41530;SDS011;58990;46.284;13.126;2022-07-21T01:15:23;39.10;;;26.48;;
41530;SDS011;58990;46.284;13.126;2022-07-21T01:17:49;36.88;;;24.63;;
41530;SDS011;58990;46.284;13.126;2022-07-21T01:20:16;42.45;;;26.20;;
41530;SDS011;58990;46.284;13.126;2022-07-21T01:22:45;36.75;;;25.20;;
41530;SDS011;58990;46.284;13.126;2022-07-21T01:25:12;39.50;;;27.25;;
41530;SDS011;58990;46.284;13.126;2022-07-21T01:27:38;38.75;;;27.25;;
41530;SDS011;58990;46.284;13.126;2022-07-21T01:30:05;41.08;;;27.45;;
41530;SDS011;58990;46.284;13.126;2022-07-21T01:32:33;42.88;;;29.60;;
41530;SDS011;58990;46.284;13.126;2022-07-21T01:35:00;51.35;;;30.83;;
41530;SDS011;58990;46.284;13.126;2022-07-21T01:37:28;48.97;;;34.50;;
41530;SDS011;58990;46.284;13.126;2022-07-21T01:39:55;59.15;;;40.33;;
41530;SDS011;58990;46.284;13.126;2022-07-21T01:42:40;83.13;;;56.42;;
41530;SDS011;58990;46.284;13.126;2022-07-21T01:45:06;83.28;;;58.83;;
41530;SDS011;58990;46.284;13.126;2022-07-21T01:47:33;69.07;;;52.97;;
41530;SDS011;58990;46.284;13.126;2022-07-21T01:50:00;74.30;;;52.10;;
41530;SDS011;58990;46.284;13.126;2022-07-21T01:52:25;70.38;;;50.08;;
41530;SDS011;58990;46.284;13.126;2022-07-21T01:54:51;86.50;;;56.38;;
41530;SDS011;58990;46.284;13.126;2022-07-21T01:57:16;76.88;;;54.67;;
41530;SDS011;58990;46.284;13.126;2022-07-21T01:59:42;77.85;;;60.30;;
41530;SDS011;58990;46.284;13.126;2022-07-21T02:02:08;78.88;;;57.72;;
41530;SDS011;58990;46.284;13.126;2022-07-21T02:04:34;70.53;;;53.15;;
41530;SDS011;58990;46.284;13.126;2022-07-21T02:07:00;71.68;;;52.47;;
41530;SDS011;58990;46.284;13.126;2022-07-21T02:09:27;70.35;;;51.80;;
41530;SDS011;58990;46.284;13.126;2022-07-21T02:11:52;72.78;;;53.10;;
41530;SDS011;58990;46.284;13.126;2022-07-21T02:14:18;82.80;;;58.40;;
41530;SDS011;58990;46.284;13.126;2022-07-21T02:16:44;68.43;;;49.83;;
41530;SDS011;58990;46.284;13.126;2022-07-21T02:19:09;62.00;;;45.75;;
41530;SDS011;58990;46.284;13.126;2022-07-21T02:21:35;62.38;;;45.08;;
41530;SDS011;58990;46.284;13.126;2022-07-21T02:24:01;67.90;;;47.03;;
41530;SDS011;58990;46.284;13.126;2022-07-21T02:26:26;61.85;;;45.47;;
41530;SDS011;58990;46.284;13.126;2022-07-21T02:28:52;59.72;;;42.53;;
41530;SDS011;58990;46.284;13.126;2022-07-21T02:31:17;45.83;;;34.75;;
41530;SDS011;58990;46.284;13.126;2022-07-21T02:33:43;48.60;;;34.67;;
41530;SDS011;58990;46.284;13.126;2022-07-21T02:36:08;54.05;;;40.28;;
41530;SDS011;58990;46.284;13.126;2022-07-21T02:38:34;48.75;;;38.42;;
41530;SDS011;58990;46.284;13.126;2022-07-21T02:41:00;57.15;;;38.88;;
41530;SDS011;58990;46.284;13.126;2022-07-21T02:43:25;55.67;;;41.67;;
41530;SDS011;58990;46.284;13.126;2022-07-21T02:45:51;55.13;;;41.35;;
41530;SDS011;58990;46.284;13.126;2022-07-21T02:48:16;63.50;;;44.45;;
41530;SDS011;58990;46.284;13.126;2022-07-21T02:50:43;59.33;;;42.42;;
41530;SDS011;58990;46.284;13.126;2022-07-21T02:53:10;52.45;;;37.45;;
41530;SDS011;58990;46.284;13.126;2022-07-21T02:55:44;44.53;;;30.83;;
41530;SDS011;58990;46.284;13.126;2022-07-21T02:58:17;44.50;;;33.83;;
41530;SDS011;58990;46.284;13.126;2022-07-21T03:00:54;40.03;;;30.35;;
41530;SDS011;58990;46.284;13.126;2022-07-21T03:03:26;42.25;;;31.92;;
41530;SDS011;58990;46.284;13.126;2022-07-21T03:05:53;47.58;;;34.13;;
41530;SDS011;58990;46.284;13.126;2022-07-21T03:08:19;57.30;;;41.53;;
41530;SDS011;58990;46.284;13.126;2022-07-21T03:10:46;68.25;;;48.88;;
41530;SDS011;58990;46.284;13.126;2022-07-21T03:13:12;72.32;;;50.20;;
41530;SDS011;58990;46.284;13.126;2022-07-21T03:15:38;69.60;;;50.17;;
41530;SDS011;58990;46.284;13.126;2022-07-21T03:18:04;78.55;;;56.65;;
41530;SDS011;58990;46.284;13.126;2022-07-21T03:20:31;85.28;;;59.78;;
41530;SDS011;58990;46.284;13.126;2022-07-21T03:22:58;76.13;;;55.75;;
41530;SDS011;58990;46.284;13.126;2022-07-21T03:25:24;76.40;;;57.72;;
41530;SDS011;58990;46.284;13.126;2022-07-21T03:27:51;65.50;;;49.17;;
41530;SDS011;58990;46.284;13.126;2022-07-21T03:30:16;68.40;;;47.60;;
41530;SDS011;58990;46.284;13.126;2022-07-21T03:32:43;50.40;;;40.65;;
41530;SDS011;58990;46.284;13.126;2022-07-21T03:35:09;51.97;;;37.45;;
41530;SDS011;58990;46.284;13.126;2022-07-21T03:37:43;56.80;;;40.78;;
41530;SDS011;58990;46.284;13.126;2022-07-21T03:40:14;71.00;;;49.78;;
41530;SDS011;58990;46.284;13.126;2022-07-21T03:42:42;61.83;;;43.13;;
41530;SDS011;58990;46.284;13.126;2022-07-21T03:45:08;71.35;;;51.97;;
41530;SDS011;58990;46.284;13.126;2022-07-21T03:47:35;62.80;;;47.78;;
41530;SDS011;58990;46.284;13.126;2022-07-21T03:50:00;54.00;;;40.40;;
41530;SDS011;58990;46.284;13.126;2022-07-21T03:52:26;54.25;;;39.15;;
41530;SDS011;58990;46.284;13.126;2022-07-21T03:54:52;62.88;;;44.58;;
41530;SDS011;58990;46.284;13.126;2022-07-21T03:57:34;52.75;;;40.47;;
41530;SDS011;58990;46.284;13.126;2022-07-21T04:00:05;69.00;;;49.88;;
41530;SDS011;58990;46.284;13.126;2022-07-21T04:02:33;68.18;;;50.40;;
41530;SDS011;58990;46.284;13.126;2022-07-21T04:04:58;69.15;;;52.13;;
41530;SDS011;58990;46.284;13.126;2022-07-21T04:07:24;77.90;;;57.90;;
41530;SDS011;58990;46.284;13.126;2022-07-21T04:09:49;75.53;;;54.53;;
41530;SDS011;58990;46.284;13.126;2022-07-21T04:12:15;71.18;;;53.40;;
41530;SDS011;58990;46.284;13.126;2022-07-21T04:14:40;74.82;;;54.83;;
41530;SDS011;58990;46.284;13.126;2022-07-21T04:17:06;64.45;;;47.00;;
41530;SDS011;58990;46.284;13.126;2022-07-21T04:19:31;57.25;;;41.60;;
41530;SDS011;58990;46.284;13.126;2022-07-21T04:21:57;68.03;;;46.55;;
41530;SDS011;58990;46.284;13.126;2022-07-21T04:24:23;62.38;;;48.13;;
41530;SDS011;58990;46.284;13.126;2022-07-21T04:26:48;78.18;;;58.70;;
41530;SDS011;58990;46.284;13.126;2022-07-21T04:29:14;68.22;;;47.17;;
41530;SDS011;58990;46.284;13.126;2022-07-21T04:31:39;61.35;;;44.75;;
41530;SDS011;58990;46.284;13.126;2022-07-21T04:34:05;64.05;;;45.47;;
41530;SDS011;58990;46.284;13.126;2022-07-21T04:36:30;69.57;;;48.42;;
41530;SDS011;58990;46.284;13.126;2022-07-21T04:38:56;77.75;;;51.85;;
41530;SDS011;58990;46.284;13.126;2022-07-21T04:41:21;67.82;;;49.50;;
41530;SDS011;58990;46.284;13.126;2022-07-21T04:43:47;69.68;;;48.03;;
41530;SDS011;58990;46.284;13.126;2022-07-21T04:46:12;77.60;;;55.83;;
41530;SDS011;58990;46.284;13.126;2022-07-21T04:48:38;75.03;;;56.78;;
41530;SDS011;58990;46.284;13.126;2022-07-21T04:51:04;95.18;;;68.78;;
41530;SDS011;58990;46.284;13.126;2022-07-21T04:53:29;108.22;;;79.18;;
41530;SDS011;58990;46.284;13.126;2022-07-21T04:55:55;106.43;;;85.43;;
41530;SDS011;58990;46.284;13.126;2022-07-21T04:58:20;123.45;;;92.15;;
41530;SDS011;58990;46.284;13.126;2022-07-21T05:00:46;110.13;;;83.63;;
41530;SDS011;58990;46.284;13.126;2022-07-21T05:03:11;105.57;;;77.38;;
41530;SDS011;58990;46.284;13.126;2022-07-21T05:05:38;94.68;;;70.88;;
41530;SDS011;58990;46.284;13.126;2022-07-21T05:08:05;101.18;;;74.45;;
41530;SDS011;58990;46.284;13.126;2022-07-21T05:10:30;100.05;;;72.25;;
41530;SDS011;58990;46.284;13.126;2022-07-21T05:12:56;93.60;;;67.22;;
41530;SDS011;58990;46.284;13.126;2022-07-21T05:15:21;93.93;;;63.83;;
41530;SDS011;58990;46.284;13.126;2022-07-21T05:17:47;78.53;;;59.42;;
41530;SDS011;58990;46.284;13.126;2022-07-21T05:20:12;83.93;;;59.55;;
41530;SDS011;58990;46.284;13.126;2022-07-21T05:22:38;76.55;;;54.88;;
41530;SDS011;58990;46.284;13.126;2022-07-21T05:25:04;71.80;;;55.40;;
41530;SDS011;58990;46.284;13.126;2022-07-21T05:27:30;67.38;;;50.53;;
41530;SDS011;58990;46.284;13.126;2022-07-21T05:29:56;79.25;;;56.55;;
41530;SDS011;58990;46.284;13.126;2022-07-21T05:32:22;74.30;;;56.40;;
41530;SDS011;58990;46.284;13.126;2022-07-21T05:34:47;89.68;;;62.90;;
41530;SDS011;58990;46.284;13.126;2022-07-21T05:37:12;97.13;;;73.53;;
41530;SDS011;58990;46.284;13.126;2022-07-21T05:39:38;98.38;;;71.63;;
41530;SDS011;58990;46.284;13.126;2022-07-21T05:42:04;99.80;;;75.90;;
41530;SDS011;58990;46.284;13.126;2022-07-21T05:44:32;95.15;;;71.22;;
41530;SDS011;58990;46.284;13.126;2022-07-21T05:46:58;94.57;;;67.45;;
41530;SDS011;58990;46.284;13.126;2022-07-21T05:49:23;84.00;;;63.13;;
41530;SDS011;58990;46.284;13.126;2022-07-21T05:51:49;83.03;;;60.78;;
41530;SDS011;58990;46.284;13.126;2022-07-21T05:54:14;80.50;;;59.20;;
41530;SDS011;58990;46.284;13.126;2022-07-21T05:56:40;78.30;;;57.72;;
41530;SDS011;58990;46.284;13.126;2022-07-21T05:59:05;76.15;;;56.50;;
41530;SDS011;58990;46.284;13.126;2022-07-21T06:01:31;76.68;;;57.40;;
41530;SDS011;58990;46.284;13.126;2022-07-21T06:03:56;75.75;;;54.67;;
41530;SDS011;58990;46.284;13.126;2022-07-21T06:06:22;82.20;;;55.03;;
41530;SDS011;58990;46.284;13.126;2022-07-21T06:08:48;70.05;;;50.03;;
41530;SDS011;58990;46.284;13.126;2022-07-21T06:11:15;64.68;;;47.38;;
41530;SDS011;58990;46.284;13.126;2022-07-21T06:13:43;63.92;;;48.50;;
41530;SDS011;58990;46.284;13.126;2022-07-21T06:16:09;72.97;;;53.53;;
41530;SDS011;58990;46.284;13.126;2022-07-21T06:18:35;85.70;;;62.55;;
41530;SDS011;58990;46.284;13.126;2022-07-21T06:21:01;79.10;;;58.70;;
41530;SDS011;58990;46.284;13.126;2022-07-21T06:23:29;74.57;;;55.25;;
41530;SDS011;58990;46.284;13.126;2022-07-21T06:25:54;69.38;;;51.90;;
41530;SDS011;58990;46.284;13.126;2022-07-21T06:28:20;87.93;;;61.03;;
41530;SDS011;58990;46.284;13.126;2022-07-21T06:30:46;96.20;;;69.22;;
41530;SDS011;58990;46.284;13.126;2022-07-21T06:33:12;94.63;;;72.18;;
41530;SDS011;58990;46.284;13.126;2022-07-21T06:35:38;93.60;;;70.85;;
41530;SDS011;58990;46.284;13.126;2022-07-21T06:38:04;83.63;;;62.03;;
41530;SDS011;58990;46.284;13.126;2022-07-21T06:40:30;80.57;;;61.17;;
41530;SDS011;58990;46.284;13.126;2022-07-21T06:42:55;86.78;;;62.20;;
41530;SDS011;58990;46.284;13.126;2022-07-21T06:45:21;77.55;;;55.53;;
41530;SDS011;58990;46.284;13.126;2022-07-21T06:47:48;76.13;;;59.13;;
41530;SDS011;58990;46.284;13.126;2022-07-21T06:50:13;90.93;;;66.53;;
41530;SDS011;58990;46.284;13.126;2022-07-21T06:52:39;89.75;;;64.28;;
41530;SDS011;58990;46.284;13.126;2022-07-21T06:55:06;79.78;;;61.75;;
41530;SDS011;58990;46.284;13.126;2022-07-21T06:57:33;86.72;;;66.13;;
41530;SDS011;58990;46.284;13.126;2022-07-21T07:00:00;88.90;;;66.57;;
41530;SDS011;58990;46.284;13.126;2022-07-21T07:02:26;103.15;;;80.30;;
41530;SDS011;58990;46.284;13.126;2022-07-21T07:04:51;137.70;;;107.13;;
41530;SDS011;58990;46.284;13.126;2022-07-21T07:07:17;135.23;;;103.72;;
41530;SDS011;58990;46.284;13.126;2022-07-21T07:09:42;147.45;;;110.05;;
41530;SDS011;58990;46.284;13.126;2022-07-21T07:12:08;149.45;;;114.30;;
41530;SDS011;58990;46.284;13.126;2022-07-21T07:14:34;148.93;;;109.78;;
41530;SDS011;58990;46.284;13.126;2022-07-21T07:17:01;140.65;;;108.18;;
41530;SDS011;58990;46.284;13.126;2022-07-21T07:19:28;119.70;;;94.68;;
41530;SDS011;58990;46.284;13.126;2022-07-21T07:21:55;132.80;;;102.25;;
41530;SDS011;58990;46.284;13.126;2022-07-21T07:24:21;154.25;;;114.93;;
41530;SDS011;58990;46.284;13.126;2022-07-21T07:26:47;145.13;;;111.85;;
41530;SDS011;58990;46.284;13.126;2022-07-21T07:29:12;135.57;;;105.60;;
41530;SDS011;58990;46.284;13.126;2022-07-21T07:31:38;132.40;;;99.63;;
41530;SDS011;58990;46.284;13.126;2022-07-21T07:34:04;130.48;;;94.00;;
41530;SDS011;58990;46.284;13.126;2022-07-21T07:36:30;113.30;;;87.55;;
41530;SDS011;58990;46.284;13.126;2022-07-21T07:38:56;109.57;;;85.68;;
41530;SDS011;58990;46.284;13.126;2022-07-21T07:41:23;107.38;;;85.70;;
41530;SDS011;58990;46.284;13.126;2022-07-21T07:43:50;103.93;;;83.20;;
41530;SDS011;58990;46.284;13.126;2022-07-21T07:46:16;106.43;;;82.82;;
41530;SDS011;58990;46.284;13.126;2022-07-21T07:48:46;104.20;;;81.30;;
41530;SDS011;58990;46.284;13.126;2022-07-21T07:51:12;97.72;;;77.00;;
41530;SDS011;58990;46.284;13.126;2022-07-21T07:53:39;92.03;;;74.07;;
41530;SDS011;58990;46.284;13.126;2022-07-21T07:56:06;92.28;;;70.95;;
41530;SDS011;58990;46.284;13.126;2022-07-21T07:58:32;94.75;;;76.93;;
41530;SDS011;58990;46.284;13.126;2022-07-21T08:00:58;98.53;;;78.18;;
41530;SDS011;58990;46.284;13.126;2022-07-21T08:03:24;95.80;;;78.68;;
41530;SDS011;58990;46.284;13.126;2022-07-21T08:05:50;90.93;;;75.95;;
41530;SDS011;58990;46.284;13.126;2022-07-21T08:08:16;91.38;;;74.95;;
41530;SDS011;58990;46.284;13.126;2022-07-21T08:10:42;93.22;;;78.95;;
41530;SDS011;58990;46.284;13.126;2022-07-21T08:13:11;88.97;;;72.15;;
41530;SDS011;58990;46.284;13.126;2022-07-21T08:15:39;87.68;;;71.82;;
41530;SDS011;58990;46.284;13.126;2022-07-21T08:18:05;87.93;;;70.47;;
41530;SDS011;58990;46.284;13.126;2022-07-21T08:20:31;90.65;;;74.60;;
41530;SDS011;58990;46.284;13.126;2022-07-21T08:22:57;84.70;;;64.43;;
41530;SDS011;58990;46.284;13.126;2022-07-21T08:25:23;63.17;;;50.67;;
41530;SDS011;58990;46.284;13.126;2022-07-21T08:27:48;55.72;;;45.45;;
41530;SDS011;58990;46.284;13.126;2022-07-21T08:30:14;64.18;;;51.28;;
41530;SDS011;58990;46.284;13.126;2022-07-21T08:32:40;58.67;;;45.88;;
41530;SDS011;58990;46.284;13.126;2022-07-21T08:35:05;58.60;;;44.92;;
41530;SDS011;58990;46.284;13.126;2022-07-21T08:37:34;55.55;;;44.25;;
41530;SDS011;58990;46.284;13.126;2022-07-21T08:40:01;55.70;;;43.30;;
41530;SDS011;58990;46.284;13.126;2022-07-21T08:42:28;46.35;;;33.72;;
41530;SDS011;58990;46.284;13.126;2022-07-21T08:44:54;34.00;;;26.20;;
41530;SDS011;58990;46.284;13.126;2022-07-21T08:47:20;35.88;;;27.30;;
41530;SDS011;58990;46.284;13.126;2022-07-21T08:49:46;33.50;;;23.90;;
41530;SDS011;58990;46.284;13.126;2022-07-21T08:52:11;28.85;;;22.35;;
41530;SDS011;58990;46.284;13.126;2022-07-21T08:54:37;22.05;;;16.48;;
41530;SDS011;58990;46.284;13.126;2022-07-21T08:57:03;22.50;;;16.48;;
41530;SDS011;58990;46.284;13.126;2022-07-21T08:59:29;27.08;;;20.42;;
41530;SDS011;58990;46.284;13.126;2022-07-21T09:01:55;20.10;;;15.05;;
41530;SDS011;58990;46.284;13.126;2022-07-21T09:04:21;29.25;;;22.90;;
41530;SDS011;58990;46.284;13.126;2022-07-21T09:06:49;19.80;;;15.73;;
41530;SDS011;58990;46.284;13.126;2022-07-21T09:09:18;21.80;;;14.63;;
41530;SDS011;58990;46.284;13.126;2022-07-21T09:11:45;29.42;;;20.05;;
41530;SDS011;58990;46.284;13.126;2022-07-21T09:14:12;25.98;;;17.38;;
41530;SDS011;58990;46.284;13.126;2022-07-21T09:16:40;24.52;;;18.45;;
41530;SDS011;58990;46.284;13.126;2022-07-21T09:21:54;25.40;;;15.80;;
41530;SDS011;58990;46.284;13.126;2022-07-21T09:24:25;25.55;;;15.13;;
41530;SDS011;58990;46.284;13.126;2022-07-21T09:35:00;19.02;;;14.48;;
41530;SDS011;58990;46.284;13.126;2022-07-21T09:37:35;23.35;;;14.75;;
41530;SDS011;58990;46.284;13.126;2022-07-21T09:40:03;25.75;;;16.85;;
41530;SDS011;58990;46.284;13.126;2022-07-21T09:42:33;20.75;;;14.85;;
41530;SDS011;58990;46.284;13.126;2022-07-21T09:45:03;18.90;;;14.33;;
41530;SDS011;58990;46.284;13.126;2022-07-21T09:47:31;28.17;;;16.17;;
41530;SDS011;58990;46.284;13.126;2022-07-21T09:50:15;21.55;;;15.70;;
41530;SDS011;58990;46.284;13.126;2022-07-21T09:52:42;24.08;;;16.27;;
41530;SDS011;58990;46.284;13.126;2022-07-21T09:55:10;18.42;;;12.98;;
41530;SDS011;58990;46.284;13.126;2022-07-21T09:57:37;20.45;;;15.90;;
41530;SDS011;58990;46.284;13.126;2022-07-21T10:00:07;21.92;;;15.07;;
41530;SDS011;58990;46.284;13.126;2022-07-21T10:02:35;23.90;;;16.15;;
41530;SDS011;58990;46.284;13.126;2022-07-21T10:05:08;22.77;;;16.45;;
41530;SDS011;58990;46.284;13.126;2022-07-21T10:07:36;24.67;;;18.73;;
41530;SDS011;58990;46.284;13.126;2022-07-21T10:10:03;25.00;;;18.70;;
41530;SDS011;58990;46.284;13.126;2022-07-21T10:12:29;22.88;;;17.50;;
41530;SDS011;58990;46.284;13.126;2022-07-21T10:14:55;23.85;;;17.33;;
41530;SDS011;58990;46.284;13.126;2022-07-21T10:17:21;20.67;;;13.80;;
41530;SDS011;58990;46.284;13.126;2022-07-21T10:25:11;15.70;;;10.60;;
41530;SDS011;58990;46.284;13.126;2022-07-21T10:27:37;17.98;;;10.63;;
41530;SDS011;58990;46.284;13.126;2022-07-21T10:30:04;18.25;;;11.43;;
41530;SDS011;58990;46.284;13.126;2022-07-21T10:32:31;17.55;;;11.32;;
41530;SDS011;58990;46.284;13.126;2022-07-21T10:35:24;13.82;;;8.60;;
41530;SDS011;58990;46.284;13.126;2022-07-21T10:37:50;12.63;;;9.15;;
41530;SDS011;58990;46.284;13.126;2022-07-21T10:45:40;10.82;;;7.15;;
41530;SDS011;58990;46.284;13.126;2022-07-21T10:48:10;12.43;;;8.10;;
41530;SDS011;58990;46.284;13.126;2022-07-21T10:51:16;8.98;;;6.45;;
41530;SDS011;58990;46.284;13.126;2022-07-21T10:53:42;12.73;;;7.22;;
41530;SDS011;58990;46.284;13.126;2022-07-21T10:56:26;14.63;;;8.30;;
41530;SDS011;58990;46.284;13.126;2022-07-21T10:58:56;13.25;;;8.82;;
41530;SDS011;58990;46.284;13.126;2022-07-21T11:01:22;12.57;;;8.45;;
41530;SDS011;58990;46.284;13.126;2022-07-21T11:06:43;21.90;;;10.05;;
41530;SDS011;58990;46.284;13.126;2022-07-21T11:11:58;20.35;;;11.20;;
41530;SDS011;58990;46.284;13.126;2022-07-21T11:17:24;14.30;;;10.85;;
41530;SDS011;58990;46.284;13.126;2022-07-21T11:19:53;21.45;;;12.45;;
41530;SDS011;58990;46.284;13.126;2022-07-21T11:22:26;18.75;;;14.02;;
41530;SDS011;58990;46.284;13.126;2022-07-21T11:27:35;18.38;;;11.98;;
41530;SDS011;58990;46.284;13.126;2022-07-21T11:30:05;20.52;;;12.93;;
41530;SDS011;58990;46.284;13.126;2022-07-21T11:32:33;17.88;;;13.00;;
41530;SDS011;58990;46.284;13.126;2022-07-21T11:34:59;23.10;;;12.98;;
41530;SDS011;58990;46.284;13.126;2022-07-21T11:40:12;19.65;;;12.30;;
41530;SDS011;58990;46.284;13.126;2022-07-21T11:42:43;18.55;;;12.90;;
41530;SDS011;58990;46.284;13.126;2022-07-21T11:45:15;19.23;;;12.88;;
41530;SDS011;58990;46.284;13.126;2022-07-21T11:47:42;25.38;;;12.85;;
41530;SDS011;58990;46.284;13.126;2022-07-21T11:50:08;15.63;;;11.40;;
41530;SDS011;58990;46.284;13.126;2022-07-21T11:52:38;17.83;;;11.73;;
41530;SDS011;58990;46.284;13.126;2022-07-21T11:55:06;18.90;;;13.70;;
41530;SDS011;58990;46.284;13.126;2022-07-21T11:57:33;24.67;;;14.23;;
41530;SDS011;58990;46.284;13.126;2022-07-21T11:59:59;16.65;;;12.85;;
41530;SDS011;58990;46.284;13.126;2022-07-21T12:02:26;17.33;;;13.18;;
41530;SDS011;58990;46.284;13.126;2022-07-21T12:04:56;18.52;;;12.10;;
41530;SDS011;58990;46.284;13.126;2022-07-21T12:07:28;16.00;;;12.52;;
41530;SDS011;58990;46.284;13.126;2022-07-21T12:12:46;17.42;;;11.32;;
41530;SDS011;58990;46.284;13.126;2022-07-21T12:17:53;14.90;;;11.20;;
41530;SDS011;58990;46.284;13.126;2022-07-21T12:26:01;14.88;;;10.68;;
41530;SDS011;58990;46.284;13.126;2022-07-21T12:28:41;13.77;;;8.15;;
41530;SDS011;58990;46.284;13.126;2022-07-21T12:31:19;15.50;;;9.02;;
41530;SDS011;58990;46.284;13.126;2022-07-21T12:33:46;15.32;;;9.80;;
41530;SDS011;58990;46.284;13.126;2022-07-21T12:36:12;14.23;;;9.68;;
41530;SDS011;58990;46.284;13.126;2022-07-21T12:41:17;11.07;;;8.98;;
41530;SDS011;58990;46.284;13.126;2022-07-21T12:43:57;13.40;;;8.53;;
41530;SDS011;58990;46.284;13.126;2022-07-21T12:46:28;11.10;;;7.32;;
41530;SDS011;58990;46.284;13.126;2022-07-21T12:49:09;10.77;;;7.00;;
41530;SDS011;58990;46.284;13.126;2022-07-21T12:51:35;12.40;;;7.00;;
41530;SDS011;58990;46.284;13.126;2022-07-21T12:54:02;11.73;;;6.97;;
41530;SDS011;58990;46.284;13.126;2022-07-21T12:56:29;10.18;;;6.80;;
41530;SDS011;58990;46.284;13.126;2022-07-21T12:58:57;10.93;;;6.60;;
41530;SDS011;58990;46.284;13.126;2022-07-21T13:01:25;8.23;;;6.00;;
41530;SDS011;58990;46.284;13.126;2022-07-21T13:03:53;11.57;;;7.00;;
41530;SDS011;58990;46.284;13.126;2022-07-21T13:06:20;11.10;;;6.10;;
41530;SDS011;58990;46.284;13.126;2022-07-21T13:08:46;11.80;;;6.10;;
41530;SDS011;58990;46.284;13.126;2022-07-21T13:11:13;10.20;;;6.25;;
41530;SDS011;58990;46.284;13.126;2022-07-21T13:13:41;8.45;;;6.35;;
41530;SDS011;58990;46.284;13.126;2022-07-21T13:16:07;9.85;;;6.80;;
41530;SDS011;58990;46.284;13.126;2022-07-21T13:18:32;10.77;;;6.63;;
41530;SDS011;58990;46.284;13.126;2022-07-21T13:20:58;8.32;;;6.40;;
41530;SDS011;58990;46.284;13.126;2022-07-21T13:23:26;11.93;;;6.45;;
41530;SDS011;58990;46.284;13.126;2022-07-21T13:25:51;9.25;;;6.20;;
41530;SDS011;58990;46.284;13.126;2022-07-21T13:28:17;14.98;;;6.53;;
41530;SDS011;58990;46.284;13.126;2022-07-21T13:30:44;10.27;;;5.45;;
41530;SDS011;58990;46.284;13.126;2022-07-21T13:33:11;11.95;;;6.60;;
41530;SDS011;58990;46.284;13.126;2022-07-21T13:35:36;7.15;;;5.68;;
41530;SDS011;58990;46.284;13.126;2022-07-21T13:38:02;14.20;;;5.95;;
41530;SDS011;58990;46.284;13.126;2022-07-21T13:40:28;9.55;;;5.57;;
41530;SDS011;58990;46.284;13.126;2022-07-21T13:42:54;9.82;;;5.53;;
41530;SDS011;58990;46.284;13.126;2022-07-21T13:45:20;12.20;;;5.30;;
41530;SDS011;58990;46.284;13.126;2022-07-21T13:47:46;10.68;;;5.30;;
41530;SDS011;58990;46.284;13.126;2022-07-21T13:50:11;8.80;;;4.72;;
41530;SDS011;58990;46.284;13.126;2022-07-21T13:52:37;7.82;;;5.60;;
41530;SDS011;58990;46.284;13.126;2022-07-21T13:55:06;6.97;;;4.80;;
41530;SDS011;58990;46.284;13.126;2022-07-21T13:57:32;10.70;;;5.68;;
41530;SDS011;58990;46.284;13.126;2022-07-21T13:59:57;16.92;;;5.63;;
41530;SDS011;58990;46.284;13.126;2022-07-21T14:02:23;10.52;;;4.97;;
41530;SDS011;58990;46.284;13.126;2022-07-21T14:04:48;9.40;;;5.88;;
41530;SDS011;58990;46.284;13.126;2022-07-21T14:07:14;6.50;;;5.40;;
41530;SDS011;58990;46.284;13.126;2022-07-21T14:09:40;7.43;;;6.13;;
41530;SDS011;58990;46.284;13.126;2022-07-21T14:12:06;10.93;;;6.13;;
41530;SDS011;58990;46.284;13.126;2022-07-21T14:14:31;10.80;;;6.30;;
41530;SDS011;58990;46.284;13.126;2022-07-21T14:16:57;9.45;;;6.22;;
41530;SDS011;58990;46.284;13.126;2022-07-21T14:19:23;11.50;;;6.45;;
41530;SDS011;58990;46.284;13.126;2022-07-21T14:21:48;14.27;;;7.35;;
41530;SDS011;58990;46.284;13.126;2022-07-21T14:24:14;10.55;;;7.10;;
41530;SDS011;58990;46.284;13.126;2022-07-21T14:27:00;12.20;;;9.20;;
41530;SDS011;58990;46.284;13.126;2022-07-21T14:29:26;14.57;;;8.10;;
41530;SDS011;58990;46.284;13.126;2022-07-21T14:31:52;10.98;;;8.38;;
41530;SDS011;58990;46.284;13.126;2022-07-21T14:34:17;12.68;;;8.82;;
41530;SDS011;58990;46.284;13.126;2022-07-21T14:36:43;16.77;;;10.10;;
41530;SDS011;58990;46.284;13.126;2022-07-21T14:39:09;11.98;;;9.05;;
41530;SDS011;58990;46.284;13.126;2022-07-21T14:41:35;13.18;;;10.38;;
41530;SDS011;58990;46.284;13.126;2022-07-21T14:44:00;12.98;;;10.45;;
41530;SDS011;58990;46.284;13.126;2022-07-21T14:46:26;11.25;;;10.13;;
41530;SDS011;58990;46.284;13.126;2022-07-21T14:48:51;11.13;;;10.00;;
41530;SDS011;58990;46.284;13.126;2022-07-21T14:51:17;11.05;;;9.73;;
41530;SDS011;58990;46.284;13.126;2022-07-21T14:53:42;11.40;;;10.20;;
41530;SDS011;58990;46.284;13.126;2022-07-21T14:56:08;10.45;;;9.35;;
41530;SDS011;58990;46.284;13.126;2022-07-21T14:58:34;11.05;;;9.85;;